sensor_id;sensor_type;location;lat;lon;timestamp;P1;durP1;ratioP1;P2;durP2;ratioP2
17595;SDS011;8916;47.086;15.920;2024-03-17T00:00:05;12.75;;;6.20;;
17595;SDS011;8916;47.086;15.920;2024-03-17T00:02:40;11.00;;;5.90;;
17595;SDS011;8916;47.086;15.920;2024-03-17T00:05:09;14.68;;;6.35;;
17595;SDS011;8916;47.086;15.920;2024-03-17T00:07:38;9.80;;;5.20;;
17595;SDS011;8916;47.086;15.920;2024-03-17T00:10:05;9.75;;;6.07;;
17595;SDS011;8916;47.086;15.920;2024-03-17T00:12:35;15.27;;;6.20;;
17595;SDS011;8916;47.086;15.920;2024-03-17T00:15:02;13.55;;;7.45;;
17595;SDS011;8916;47.086;15.920;2024-03-17T00:17:32;15.35;;;7.15;;
17595;SDS011;8916;47.086;15.920;2024-03-17T00:20:00;11.32;;;5.82;;
17595;SDS011;8916;47.086;15.920;2024-03-17T00:22:32;12.88;;;5.72;;
17595;SDS011;8916;47.086;15.920;2024-03-17T00:25:03;11.57;;;5.57;;
17595;SDS011;8916;47.086;15.920;2024-03-17T00:27:33;11.45;;;5.43;;
17595;SDS011;8916;47.086;15.920;2024-03-17T00:30:03;12.75;;;6.65;;
17595;SDS011;8916;47.086;15.920;2024-03-17T00:32:36;11.98;;;5.65;;
17595;SDS011;8916;47.086;15.920;2024-03-17T00:35:04;16.13;;;6.25;;
17595;SDS011;8916;47.086;15.920;2024-03-17T00:37:36;15.25;;;6.40;;
17595;SDS011;8916;47.086;15.920;2024-03-17T00:40:06;13.20;;;6.18;;
17595;SDS011;8916;47.086;15.920;2024-03-17T00:42:38;16.52;;;6.93;;
17595;SDS011;8916;47.086;15.920;2024-03-17T00:45:05;16.90;;;6.43;;
17595;SDS011;8916;47.086;15.920;2024-03-17T00:47:34;12.88;;;6.53;;
17595;SDS011;8916;47.086;15.920;2024-03-17T00:50:01;13.82;;;6.10;;
17595;SDS011;8916;47.086;15.920;2024-03-17T00:52:30;11.70;;;5.18;;
17595;SDS011;8916;47.086;15.920;2024-03-17T00:55:00;11.13;;;5.15;;
17595;SDS011;8916;47.086;15.920;2024-03-17T00:57:28;7.93;;;5.20;;
17595;SDS011;8916;47.086;15.920;2024-03-17T00:59:56;9.63;;;5.03;;
17595;SDS011;8916;47.086;15.920;2024-03-17T01:02:24;11.05;;;5.47;;
17595;SDS011;8916;47.086;15.920;2024-03-17T01:04:53;9.25;;;5.50;;
17595;SDS011;8916;47.086;15.920;2024-03-17T01:07:20;11.95;;;6.25;;
17595;SDS011;8916;47.086;15.920;2024-03-17T01:09:49;10.05;;;5.10;;
17595;SDS011;8916;47.086;15.920;2024-03-17T01:12:18;7.70;;;4.35;;
17595;SDS011;8916;47.086;15.920;2024-03-17T01:14:46;7.05;;;4.70;;
17595;SDS011;8916;47.086;15.920;2024-03-17T01:17:14;8.00;;;4.00;;
17595;SDS011;8916;47.086;15.920;2024-03-17T01:19:45;9.18;;;4.40;;
17595;SDS011;8916;47.086;15.920;2024-03-17T01:22:12;7.88;;;4.22;;
17595;SDS011;8916;47.086;15.920;2024-03-17T01:24:41;6.07;;;3.72;;
17595;SDS011;8916;47.086;15.920;2024-03-17T01:27:12;6.05;;;3.78;;
17595;SDS011;8916;47.086;15.920;2024-03-17T01:29:43;6.68;;;3.75;;
17595;SDS011;8916;47.086;15.920;2024-03-17T01:32:10;7.07;;;3.55;;
17595;SDS011;8916;47.086;15.920;2024-03-17T01:34:39;5.60;;;3.00;;
17595;SDS011;8916;47.086;15.920;2024-03-17T01:37:06;6.18;;;3.60;;
17595;SDS011;8916;47.086;15.920;2024-03-17T01:39:35;6.03;;;3.22;;
17595;SDS011;8916;47.086;15.920;2024-03-17T01:42:02;7.32;;;3.17;;
17595;SDS011;8916;47.086;15.920;2024-03-17T01:44:31;7.53;;;3.90;;
17595;SDS011;8916;47.086;15.920;2024-03-17T01:46:59;5.28;;;3.25;;
17595;SDS011;8916;47.086;15.920;2024-03-17T01:49:29;7.70;;;3.63;;
17595;SDS011;8916;47.086;15.920;2024-03-17T01:51:57;7.03;;;3.47;;
17595;SDS011;8916;47.086;15.920;2024-03-17T01:54:25;6.25;;;3.47;;
17595;SDS011;8916;47.086;15.920;2024-03-17T01:56:53;7.05;;;3.17;;
17595;SDS011;8916;47.086;15.920;2024-03-17T01:59:21;7.85;;;4.00;;
17595;SDS011;8916;47.086;15.920;2024-03-17T02:01:48;6.15;;;3.53;;
17595;SDS011;8916;47.086;15.920;2024-03-17T02:04:18;6.22;;;2.72;;
17595;SDS011;8916;47.086;15.920;2024-03-17T02:06:45;6.38;;;3.00;;
17595;SDS011;8916;47.086;15.920;2024-03-17T02:09:13;5.18;;;3.00;;
17595;SDS011;8916;47.086;15.920;2024-03-17T02:11:41;3.65;;;2.70;;
17595;SDS011;8916;47.086;15.920;2024-03-17T02:14:09;5.13;;;2.78;;
17595;SDS011;8916;47.086;15.920;2024-03-17T02:16:40;5.10;;;3.40;;
17595;SDS011;8916;47.086;15.920;2024-03-17T02:19:08;5.55;;;3.17;;
17595;SDS011;8916;47.086;15.920;2024-03-17T02:21:37;6.28;;;3.38;;
17595;SDS011;8916;47.086;15.920;2024-03-17T02:24:07;6.43;;;3.72;;
17595;SDS011;8916;47.086;15.920;2024-03-17T02:26:34;8.20;;;3.28;;
17595;SDS011;8916;47.086;15.920;2024-03-17T02:29:04;7.10;;;3.50;;
17595;SDS011;8916;47.086;15.920;2024-03-17T02:31:31;4.95;;;3.55;;
17595;SDS011;8916;47.086;15.920;2024-03-17T02:33:59;5.55;;;3.00;;
17595;SDS011;8916;47.086;15.920;2024-03-17T02:36:27;5.05;;;3.22;;
17595;SDS011;8916;47.086;15.920;2024-03-17T02:38:55;3.63;;;2.55;;
17595;SDS011;8916;47.086;15.920;2024-03-17T02:41:43;4.82;;;3.22;;
17595;SDS011;8916;47.086;15.920;2024-03-17T02:44:12;4.78;;;2.72;;
17595;SDS011;8916;47.086;15.920;2024-03-17T02:46:40;5.78;;;3.03;;
17595;SDS011;8916;47.086;15.920;2024-03-17T02:49:08;5.30;;;2.88;;
17595;SDS011;8916;47.086;15.920;2024-03-17T02:51:40;4.82;;;2.60;;
17595;SDS011;8916;47.086;15.920;2024-03-17T02:54:08;3.72;;;2.97;;
17595;SDS011;8916;47.086;15.920;2024-03-17T02:56:36;6.13;;;3.22;;
17595;SDS011;8916;47.086;15.920;2024-03-17T02:59:06;7.15;;;3.30;;
17595;SDS011;8916;47.086;15.920;2024-03-17T03:01:34;5.55;;;2.83;;
17595;SDS011;8916;47.086;15.920;2024-03-17T03:04:02;5.32;;;3.17;;
17595;SDS011;8916;47.086;15.920;2024-03-17T03:06:31;5.47;;;2.95;;
17595;SDS011;8916;47.086;15.920;2024-03-17T03:09:00;3.63;;;2.58;;
17595;SDS011;8916;47.086;15.920;2024-03-17T03:11:31;4.25;;;2.75;;
17595;SDS011;8916;47.086;15.920;2024-03-17T03:13:59;5.10;;;3.15;;
17595;SDS011;8916;47.086;15.920;2024-03-17T03:16:30;5.90;;;2.90;;
17595;SDS011;8916;47.086;15.920;2024-03-17T03:18:58;5.55;;;3.00;;
17595;SDS011;8916;47.086;15.920;2024-03-17T03:21:26;3.88;;;2.25;;
17595;SDS011;8916;47.086;15.920;2024-03-17T03:23:55;6.35;;;2.50;;
17595;SDS011;8916;47.086;15.920;2024-03-17T03:26:23;6.15;;;3.30;;
17595;SDS011;8916;47.086;15.920;2024-03-17T03:28:51;5.13;;;2.78;;
17595;SDS011;8916;47.086;15.920;2024-03-17T03:31:20;5.22;;;3.03;;
17595;SDS011;8916;47.086;15.920;2024-03-17T03:33:50;4.40;;;3.00;;
17595;SDS011;8916;47.086;15.920;2024-03-17T03:36:18;5.63;;;3.55;;
17595;SDS011;8916;47.086;15.920;2024-03-17T03:38:47;4.22;;;2.90;;
17595;SDS011;8916;47.086;15.920;2024-03-17T03:41:15;4.95;;;2.90;;
17595;SDS011;8916;47.086;15.920;2024-03-17T03:43:44;5.13;;;3.15;;
17595;SDS011;8916;47.086;15.920;2024-03-17T03:46:12;6.10;;;3.67;;
17595;SDS011;8916;47.086;15.920;2024-03-17T03:48:41;6.25;;;3.80;;
17595;SDS011;8916;47.086;15.920;2024-03-17T03:51:11;4.97;;;3.30;;
17595;SDS011;8916;47.086;15.920;2024-03-17T03:53:39;5.78;;;3.38;;
17595;SDS011;8916;47.086;15.920;2024-03-17T03:56:09;4.80;;;3.17;;
17595;SDS011;8916;47.086;15.920;2024-03-17T03:58:37;5.32;;;3.00;;
17595;SDS011;8916;47.086;15.920;2024-03-17T04:01:06;5.80;;;2.75;;
17595;SDS011;8916;47.086;15.920;2024-03-17T04:03:37;4.60;;;3.00;;
17595;SDS011;8916;47.086;15.920;2024-03-17T04:06:06;4.32;;;2.72;;
17595;SDS011;8916;47.086;15.920;2024-03-17T04:08:38;4.63;;;3.00;;
17595;SDS011;8916;47.086;15.920;2024-03-17T04:11:07;5.22;;;3.40;;
17595;SDS011;8916;47.086;15.920;2024-03-17T04:13:36;5.70;;;3.10;;
17595;SDS011;8916;47.086;15.920;2024-03-17T04:16:04;4.25;;;3.10;;
17595;SDS011;8916;47.086;15.920;2024-03-17T04:18:34;6.72;;;3.53;;
17595;SDS011;8916;47.086;15.920;2024-03-17T04:21:04;3.60;;;2.58;;
17595;SDS011;8916;47.086;15.920;2024-03-17T04:23:34;3.33;;;2.40;;
17595;SDS011;8916;47.086;15.920;2024-03-17T04:26:05;5.60;;;2.80;;
17595;SDS011;8916;47.086;15.920;2024-03-17T04:28:35;4.00;;;2.55;;
17595;SDS011;8916;47.086;15.920;2024-03-17T04:31:04;4.22;;;2.70;;
17595;SDS011;8916;47.086;15.920;2024-03-17T04:33:33;3.85;;;2.80;;
17595;SDS011;8916;47.086;15.920;2024-03-17T04:36:02;3.92;;;2.63;;
17595;SDS011;8916;47.086;15.920;2024-03-17T04:38:31;5.47;;;3.05;;
17595;SDS011;8916;47.086;15.920;2024-03-17T04:40:59;10.73;;;2.88;;
17595;SDS011;8916;47.086;15.920;2024-03-17T04:43:33;6.13;;;3.05;;
17595;SDS011;8916;47.086;15.920;2024-03-17T04:46:04;7.68;;;3.22;;
17595;SDS011;8916;47.086;15.920;2024-03-17T04:48:35;6.88;;;3.00;;
17595;SDS011;8916;47.086;15.920;2024-03-17T04:51:04;6.20;;;2.67;;
17595;SDS011;8916;47.086;15.920;2024-03-17T04:53:32;8.50;;;3.13;;
17595;SDS011;8916;47.086;15.920;2024-03-17T04:56:01;5.50;;;3.20;;
17595;SDS011;8916;47.086;15.920;2024-03-17T04:58:32;4.70;;;3.00;;
17595;SDS011;8916;47.086;15.920;2024-03-17T05:01:05;8.98;;;3.00;;
17595;SDS011;8916;47.086;15.920;2024-03-17T05:03:34;3.85;;;2.85;;
17595;SDS011;8916;47.086;15.920;2024-03-17T05:06:03;5.75;;;2.70;;
17595;SDS011;8916;47.086;15.920;2024-03-17T05:08:32;4.13;;;2.65;;
17595;SDS011;8916;47.086;15.920;2024-03-17T05:11:02;6.50;;;3.53;;
17595;SDS011;8916;47.086;15.920;2024-03-17T05:13:35;5.82;;;3.10;;
17595;SDS011;8916;47.086;15.920;2024-03-17T05:16:05;5.43;;;2.88;;
17595;SDS011;8916;47.086;15.920;2024-03-17T05:18:33;3.42;;;2.65;;
17595;SDS011;8916;47.086;15.920;2024-03-17T05:21:02;3.38;;;2.17;;
17595;SDS011;8916;47.086;15.920;2024-03-17T05:23:32;4.13;;;1.80;;
17595;SDS011;8916;47.086;15.920;2024-03-17T05:26:02;5.93;;;3.05;;
17595;SDS011;8916;47.086;15.920;2024-03-17T05:28:32;4.65;;;2.85;;
17595;SDS011;8916;47.086;15.920;2024-03-17T05:31:02;10.32;;;3.53;;
17595;SDS011;8916;47.086;15.920;2024-03-17T05:33:30;5.35;;;3.28;;
17595;SDS011;8916;47.086;15.920;2024-03-17T05:35:58;6.68;;;3.40;;
17595;SDS011;8916;47.086;15.920;2024-03-17T05:38:29;7.65;;;3.65;;
17595;SDS011;8916;47.086;15.920;2024-03-17T05:40:58;7.88;;;3.42;;
17595;SDS011;8916;47.086;15.920;2024-03-17T05:43:27;7.35;;;4.35;;
17595;SDS011;8916;47.086;15.920;2024-03-17T05:46:00;5.15;;;3.00;;
17595;SDS011;8916;47.086;15.920;2024-03-17T05:48:29;5.60;;;2.97;;
17595;SDS011;8916;47.086;15.920;2024-03-17T05:50:57;6.10;;;3.50;;
17595;SDS011;8916;47.086;15.920;2024-03-17T05:53:28;6.75;;;3.45;;
17595;SDS011;8916;47.086;15.920;2024-03-17T05:55:58;5.22;;;3.40;;
17595;SDS011;8916;47.086;15.920;2024-03-17T05:58:26;6.78;;;3.63;;
17595;SDS011;8916;47.086;15.920;2024-03-17T06:00:55;6.80;;;3.03;;
17595;SDS011;8916;47.086;15.920;2024-03-17T06:03:25;6.22;;;3.38;;
17595;SDS011;8916;47.086;15.920;2024-03-17T06:05:54;4.70;;;2.72;;
17595;SDS011;8916;47.086;15.920;2024-03-17T06:08:22;5.88;;;3.38;;
17595;SDS011;8916;47.086;15.920;2024-03-17T06:10:50;5.35;;;3.00;;
17595;SDS011;8916;47.086;15.920;2024-03-17T06:13:19;5.68;;;3.50;;
17595;SDS011;8916;47.086;15.920;2024-03-17T06:15:47;5.40;;;3.35;;
17595;SDS011;8916;47.086;15.920;2024-03-17T06:18:15;6.35;;;3.47;;
17595;SDS011;8916;47.086;15.920;2024-03-17T06:20:46;6.25;;;3.10;;
17595;SDS011;8916;47.086;15.920;2024-03-17T06:23:15;8.40;;;3.92;;
17595;SDS011;8916;47.086;15.920;2024-03-17T06:25:44;6.10;;;3.45;;
17595;SDS011;8916;47.086;15.920;2024-03-17T06:28:14;4.85;;;3.13;;
17595;SDS011;8916;47.086;15.920;2024-03-17T06:30:44;6.85;;;3.92;;
17595;SDS011;8916;47.086;15.920;2024-03-17T06:33:16;4.57;;;3.40;;
17595;SDS011;8916;47.086;15.920;2024-03-17T06:35:47;9.95;;;3.33;;
17595;SDS011;8916;47.086;15.920;2024-03-17T06:38:15;4.05;;;2.92;;
17595;SDS011;8916;47.086;15.920;2024-03-17T06:40:47;4.55;;;3.05;;
17595;SDS011;8916;47.086;15.920;2024-03-17T06:43:17;6.22;;;3.35;;
17595;SDS011;8916;47.086;15.920;2024-03-17T06:45:55;6.78;;;3.60;;
17595;SDS011;8916;47.086;15.920;2024-03-17T06:48:24;4.90;;;3.30;;
17595;SDS011;8916;47.086;15.920;2024-03-17T06:50:55;5.43;;;3.55;;
17595;SDS011;8916;47.086;15.920;2024-03-17T06:53:23;4.82;;;3.28;;
17595;SDS011;8916;47.086;15.920;2024-03-17T06:55:52;5.28;;;3.10;;
17595;SDS011;8916;47.086;15.920;2024-03-17T06:58:21;4.82;;;3.20;;
17595;SDS011;8916;47.086;15.920;2024-03-17T07:00:54;5.22;;;3.35;;
17595;SDS011;8916;47.086;15.920;2024-03-17T07:03:23;3.20;;;2.20;;
17595;SDS011;8916;47.086;15.920;2024-03-17T07:05:54;2.63;;;2.03;;
17595;SDS011;8916;47.086;15.920;2024-03-17T07:08:24;2.10;;;1.55;;
17595;SDS011;8916;47.086;15.920;2024-03-17T07:10:56;1.27;;;1.00;;
17595;SDS011;8916;47.086;15.920;2024-03-17T07:13:27;2.22;;;1.20;;
17595;SDS011;8916;47.086;15.920;2024-03-17T07:15:57;1.92;;;1.38;;
17595;SDS011;8916;47.086;15.920;2024-03-17T07:18:26;3.53;;;1.33;;
17595;SDS011;8916;47.086;15.920;2024-03-17T07:20:57;1.95;;;1.23;;
17595;SDS011;8916;47.086;15.920;2024-03-17T07:23:27;1.30;;;1.20;;
17595;SDS011;8916;47.086;15.920;2024-03-17T07:25:55;4.18;;;1.40;;
17595;SDS011;8916;47.086;15.920;2024-03-17T07:28:25;1.67;;;1.20;;
17595;SDS011;8916;47.086;15.920;2024-03-17T07:30:54;1.45;;;0.80;;
17595;SDS011;8916;47.086;15.920;2024-03-17T07:33:24;3.22;;;1.00;;
17595;SDS011;8916;47.086;15.920;2024-03-17T07:35:53;1.00;;;0.88;;
17595;SDS011;8916;47.086;15.920;2024-03-17T07:38:28;1.05;;;0.77;;
17595;SDS011;8916;47.086;15.920;2024-03-17T07:40:58;0.50;;;0.50;;
17595;SDS011;8916;47.086;15.920;2024-03-17T07:43:28;1.05;;;0.65;;
17595;SDS011;8916;47.086;15.920;2024-03-17T07:45:59;3.05;;;1.27;;
17595;SDS011;8916;47.086;15.920;2024-03-17T07:48:29;1.20;;;1.10;;
17595;SDS011;8916;47.086;15.920;2024-03-17T07:50:59;1.75;;;1.10;;
17595;SDS011;8916;47.086;15.920;2024-03-17T07:53:31;1.08;;;0.98;;
17595;SDS011;8916;47.086;15.920;2024-03-17T07:56:01;2.28;;;1.13;;
17595;SDS011;8916;47.086;15.920;2024-03-17T07:58:31;1.85;;;1.17;;
17595;SDS011;8916;47.086;15.920;2024-03-17T08:01:01;1.80;;;1.10;;
17595;SDS011;8916;47.086;15.920;2024-03-17T08:03:32;2.33;;;0.98;;
17595;SDS011;8916;47.086;15.920;2024-03-17T08:06:02;2.20;;;1.25;;
17595;SDS011;8916;47.086;15.920;2024-03-17T08:08:34;1.42;;;0.98;;
17595;SDS011;8916;47.086;15.920;2024-03-17T08:11:03;1.00;;;0.90;;
17595;SDS011;8916;47.086;15.920;2024-03-17T08:13:32;1.10;;;0.80;;
17595;SDS011;8916;47.086;15.920;2024-03-17T08:16:01;2.10;;;1.20;;
17595;SDS011;8916;47.086;15.920;2024-03-17T08:18:32;1.80;;;1.20;;
17595;SDS011;8916;47.086;15.920;2024-03-17T08:21:01;2.15;;;1.13;;
17595;SDS011;8916;47.086;15.920;2024-03-17T08:23:32;1.45;;;0.85;;
17595;SDS011;8916;47.086;15.920;2024-03-17T08:26:08;1.40;;;0.90;;
17595;SDS011;8916;47.086;15.920;2024-03-17T08:28:36;1.48;;;1.05;;
17595;SDS011;8916;47.086;15.920;2024-03-17T08:31:04;1.30;;;0.93;;
17595;SDS011;8916;47.086;15.920;2024-03-17T08:33:33;1.33;;;0.90;;
17595;SDS011;8916;47.086;15.920;2024-03-17T08:36:02;2.42;;;1.35;;
17595;SDS011;8916;47.086;15.920;2024-03-17T08:38:35;1.58;;;1.27;;
17595;SDS011;8916;47.086;15.920;2024-03-17T08:41:04;3.00;;;1.38;;
17595;SDS011;8916;47.086;15.920;2024-03-17T08:43:35;1.85;;;1.30;;
17595;SDS011;8916;47.086;15.920;2024-03-17T08:46:05;1.98;;;1.00;;
17595;SDS011;8916;47.086;15.920;2024-03-17T08:48:36;1.90;;;1.27;;
17595;SDS011;8916;47.086;15.920;2024-03-17T08:51:06;1.95;;;1.20;;
17595;SDS011;8916;47.086;15.920;2024-03-17T08:53:37;1.45;;;1.00;;
17595;SDS011;8916;47.086;15.920;2024-03-17T08:56:06;1.27;;;0.90;;
17595;SDS011;8916;47.086;15.920;2024-03-17T08:58:35;2.97;;;1.10;;
17595;SDS011;8916;47.086;15.920;2024-03-17T09:01:03;1.55;;;1.23;;
17595;SDS011;8916;47.086;15.920;2024-03-17T09:03:33;0.68;;;0.57;;
17595;SDS011;8916;47.086;15.920;2024-03-17T09:06:02;1.63;;;1.17;;
17595;SDS011;8916;47.086;15.920;2024-03-17T09:08:32;1.77;;;1.17;;
17595;SDS011;8916;47.086;15.920;2024-03-17T09:11:02;2.47;;;0.95;;
17595;SDS011;8916;47.086;15.920;2024-03-17T09:13:31;2.10;;;1.35;;
17595;SDS011;8916;47.086;15.920;2024-03-17T09:15:59;2.35;;;1.38;;
17595;SDS011;8916;47.086;15.920;2024-03-17T09:18:27;3.03;;;1.15;;
17595;SDS011;8916;47.086;15.920;2024-03-17T09:20:57;1.13;;;1.00;;
17595;SDS011;8916;47.086;15.920;2024-03-17T09:23:27;2.55;;;1.40;;
17595;SDS011;8916;47.086;15.920;2024-03-17T09:25:56;2.55;;;1.50;;
17595;SDS011;8916;47.086;15.920;2024-03-17T09:28:27;1.60;;;1.35;;
17595;SDS011;8916;47.086;15.920;2024-03-17T09:30:56;3.38;;;1.50;;
17595;SDS011;8916;47.086;15.920;2024-03-17T09:33:25;2.22;;;1.38;;
17595;SDS011;8916;47.086;15.920;2024-03-17T09:35:56;4.30;;;1.45;;
17595;SDS011;8916;47.086;15.920;2024-03-17T09:38:25;1.80;;;1.58;;
17595;SDS011;8916;47.086;15.920;2024-03-17T09:40:54;2.17;;;1.30;;
17595;SDS011;8916;47.086;15.920;2024-03-17T09:43:28;3.30;;;1.75;;
17595;SDS011;8916;47.086;15.920;2024-03-17T09:46:01;1.35;;;1.20;;
17595;SDS011;8916;47.086;15.920;2024-03-17T09:48:30;2.78;;;1.83;;
17595;SDS011;8916;47.086;15.920;2024-03-17T09:51:00;1.80;;;1.30;;
17595;SDS011;8916;47.086;15.920;2024-03-17T09:53:30;2.85;;;1.30;;
17595;SDS011;8916;47.086;15.920;2024-03-17T09:56:00;1.30;;;1.08;;
17595;SDS011;8916;47.086;15.920;2024-03-17T09:58:38;2.67;;;1.35;;
17595;SDS011;8916;47.086;15.920;2024-03-17T10:01:06;2.75;;;1.10;;
17595;SDS011;8916;47.086;15.920;2024-03-17T10:03:44;2.05;;;1.30;;
17595;SDS011;8916;47.086;15.920;2024-03-17T10:06:18;2.22;;;1.45;;
17595;SDS011;8916;47.086;15.920;2024-03-17T10:08:49;1.75;;;1.40;;
17595;SDS011;8916;47.086;15.920;2024-03-17T10:11:20;1.48;;;1.23;;
17595;SDS011;8916;47.086;15.920;2024-03-17T10:13:59;2.10;;;1.65;;
17595;SDS011;8916;47.086;15.920;2024-03-17T10:16:30;1.35;;;1.13;;
17595;SDS011;8916;47.086;15.920;2024-03-17T10:19:07;1.75;;;1.30;;
17595;SDS011;8916;47.086;15.920;2024-03-17T10:21:38;2.72;;;1.50;;
17595;SDS011;8916;47.086;15.920;2024-03-17T10:24:08;2.47;;;1.50;;
17595;SDS011;8916;47.086;15.920;2024-03-17T10:26:40;2.47;;;1.63;;
17595;SDS011;8916;47.086;15.920;2024-03-17T10:29:22;3.17;;;1.77;;
17595;SDS011;8916;47.086;15.920;2024-03-17T10:31:53;1.98;;;1.48;;
17595;SDS011;8916;47.086;15.920;2024-03-17T10:34:22;1.83;;;1.42;;
17595;SDS011;8916;47.086;15.920;2024-03-17T10:36:52;1.75;;;1.52;;
17595;SDS011;8916;47.086;15.920;2024-03-17T10:39:32;1.90;;;1.70;;
17595;SDS011;8916;47.086;15.920;2024-03-17T10:42:02;3.83;;;1.63;;
17595;SDS011;8916;47.086;15.920;2024-03-17T10:44:34;3.25;;;1.40;;
17595;SDS011;8916;47.086;15.920;2024-03-17T10:47:04;1.95;;;1.52;;
17595;SDS011;8916;47.086;15.920;2024-03-17T10:49:37;2.25;;;1.63;;
17595;SDS011;8916;47.086;15.920;2024-03-17T10:52:06;2.45;;;1.38;;
17595;SDS011;8916;47.086;15.920;2024-03-17T10:54:43;4.90;;;1.60;;
17595;SDS011;8916;47.086;15.920;2024-03-17T10:57:19;2.25;;;1.50;;
17595;SDS011;8916;47.086;15.920;2024-03-17T11:00:00;1.85;;;1.60;;
17595;SDS011;8916;47.086;15.920;2024-03-17T11:02:32;1.85;;;1.48;;
17595;SDS011;8916;47.086;15.920;2024-03-17T11:05:02;3.83;;;1.90;;
17595;SDS011;8916;47.086;15.920;2024-03-17T11:07:32;1.67;;;1.40;;
17595;SDS011;8916;47.086;15.920;2024-03-17T11:10:04;2.35;;;1.73;;
17595;SDS011;8916;47.086;15.920;2024-03-17T11:12:41;2.88;;;1.80;;
17595;SDS011;8916;47.086;15.920;2024-03-17T11:18:36;2.47;;;1.60;;
17595;SDS011;8916;47.086;15.920;2024-03-17T11:23:55;1.67;;;1.50;;
17595;SDS011;8916;47.086;15.920;2024-03-17T11:26:32;1.92;;;1.73;;
17595;SDS011;8916;47.086;15.920;2024-03-17T11:29:01;2.92;;;1.73;;
17595;SDS011;8916;47.086;15.920;2024-03-17T11:31:38;6.75;;;1.55;;
17595;SDS011;8916;47.086;15.920;2024-03-17T11:37:02;2.28;;;1.60;;
17595;SDS011;8916;47.086;15.920;2024-03-17T11:39:47;1.85;;;1.40;;
17595;SDS011;8916;47.086;15.920;2024-03-17T11:42:24;3.42;;;1.40;;
17595;SDS011;8916;47.086;15.920;2024-03-17T11:45:01;2.35;;;1.50;;
17595;SDS011;8916;47.086;15.920;2024-03-17T11:47:34;2.20;;;1.70;;
17595;SDS011;8916;47.086;15.920;2024-03-17T11:50:06;2.47;;;1.42;;
17595;SDS011;8916;47.086;15.920;2024-03-17T11:52:36;1.95;;;1.40;;
17595;SDS011;8916;47.086;15.920;2024-03-17T11:55:14;1.80;;;1.52;;
17595;SDS011;8916;47.086;15.920;2024-03-17T11:57:43;2.92;;;1.83;;
17595;SDS011;8916;47.086;15.920;2024-03-17T12:00:19;3.10;;;1.80;;
17595;SDS011;8916;47.086;15.920;2024-03-17T12:02:50;2.67;;;1.60;;
17595;SDS011;8916;47.086;15.920;2024-03-17T12:05:19;3.58;;;1.58;;
17595;SDS011;8916;47.086;15.920;2024-03-17T12:07:47;2.00;;;1.30;;
17595;SDS011;8916;47.086;15.920;2024-03-17T12:10:16;2.65;;;1.50;;
17595;SDS011;8916;47.086;15.920;2024-03-17T12:12:46;3.28;;;1.77;;
17595;SDS011;8916;47.086;15.920;2024-03-17T12:15:18;2.28;;;1.73;;
17595;SDS011;8916;47.086;15.920;2024-03-17T12:17:53;3.58;;;1.58;;
17595;SDS011;8916;47.086;15.920;2024-03-17T12:20:22;2.00;;;1.67;;
17595;SDS011;8916;47.086;15.920;2024-03-17T12:22:49;1.80;;;1.50;;
17595;SDS011;8916;47.086;15.920;2024-03-17T12:25:21;4.20;;;2.25;;
17595;SDS011;8916;47.086;15.920;2024-03-17T12:27:49;2.28;;;1.90;;
17595;SDS011;8916;47.086;15.920;2024-03-17T12:30:17;2.35;;;1.67;;
17595;SDS011;8916;47.086;15.920;2024-03-17T12:32:45;2.10;;;1.50;;
17595;SDS011;8916;47.086;15.920;2024-03-17T12:35:16;2.60;;;1.70;;
17595;SDS011;8916;47.086;15.920;2024-03-17T12:37:44;2.30;;;1.67;;
17595;SDS011;8916;47.086;15.920;2024-03-17T12:40:17;2.92;;;2.08;;
17595;SDS011;8916;47.086;15.920;2024-03-17T12:42:49;5.85;;;2.25;;
17595;SDS011;8916;47.086;15.920;2024-03-17T12:45:21;2.38;;;1.40;;
17595;SDS011;8916;47.086;15.920;2024-03-17T12:47:49;3.42;;;1.80;;
17595;SDS011;8916;47.086;15.920;2024-03-17T12:50:22;2.17;;;1.40;;
17595;SDS011;8916;47.086;15.920;2024-03-17T12:52:53;2.28;;;1.70;;
17595;SDS011;8916;47.086;15.920;2024-03-17T12:55:23;2.47;;;1.90;;
17595;SDS011;8916;47.086;15.920;2024-03-17T12:58:09;2.58;;;1.88;;
17595;SDS011;8916;47.086;15.920;2024-03-17T13:00:59;2.97;;;1.93;;
17595;SDS011;8916;47.086;15.920;2024-03-17T13:03:29;3.13;;;1.77;;
17595;SDS011;8916;47.086;15.920;2024-03-17T13:06:02;5.05;;;1.85;;
17595;SDS011;8916;47.086;15.920;2024-03-17T13:08:32;2.72;;;1.70;;
17595;SDS011;8916;47.086;15.920;2024-03-17T13:11:01;2.20;;;1.45;;
17595;SDS011;8916;47.086;15.920;2024-03-17T13:13:31;2.75;;;1.90;;
17595;SDS011;8916;47.086;15.920;2024-03-17T13:15:59;2.70;;;1.75;;
17595;SDS011;8916;47.086;15.920;2024-03-17T13:18:28;4.28;;;2.05;;
17595;SDS011;8916;47.086;15.920;2024-03-17T13:20:56;3.53;;;1.70;;
17595;SDS011;8916;47.086;15.920;2024-03-17T13:23:27;4.93;;;2.00;;
17595;SDS011;8916;47.086;15.920;2024-03-17T13:25:56;4.63;;;2.20;;
17595;SDS011;8916;47.086;15.920;2024-03-17T13:28:27;2.83;;;1.85;;
17595;SDS011;8916;47.086;15.920;2024-03-17T13:30:58;4.75;;;1.80;;
17595;SDS011;8916;47.086;15.920;2024-03-17T13:33:27;5.40;;;2.15;;
17595;SDS011;8916;47.086;15.920;2024-03-17T13:35:56;3.00;;;1.80;;
17595;SDS011;8916;47.086;15.920;2024-03-17T13:38:24;3.10;;;1.60;;
17595;SDS011;8916;47.086;15.920;2024-03-17T13:40:54;2.28;;;1.50;;
17595;SDS011;8916;47.086;15.920;2024-03-17T13:43:22;1.88;;;1.67;;
17595;SDS011;8916;47.086;15.920;2024-03-17T13:45:51;2.35;;;1.55;;
17595;SDS011;8916;47.086;15.920;2024-03-17T13:48:19;3.47;;;1.88;;
17595;SDS011;8916;47.086;15.920;2024-03-17T13:50:48;3.03;;;2.28;;
17595;SDS011;8916;47.086;15.920;2024-03-17T13:53:16;2.90;;;1.52;;
17595;SDS011;8916;47.086;15.920;2024-03-17T13:55:46;6.03;;;1.92;;
17595;SDS011;8916;47.086;15.920;2024-03-17T13:58:14;1.83;;;1.63;;
17595;SDS011;8916;47.086;15.920;2024-03-17T14:00:43;3.65;;;1.73;;
17595;SDS011;8916;47.086;15.920;2024-03-17T14:03:11;3.00;;;1.80;;
17595;SDS011;8916;47.086;15.920;2024-03-17T14:05:40;2.70;;;1.70;;
17595;SDS011;8916;47.086;15.920;2024-03-17T14:08:08;4.72;;;2.25;;
17595;SDS011;8916;47.086;15.920;2024-03-17T14:10:36;3.40;;;1.55;;
17595;SDS011;8916;47.086;15.920;2024-03-17T14:13:06;2.80;;;1.60;;
17595;SDS011;8916;47.086;15.920;2024-03-17T14:15:34;2.95;;;1.90;;
17595;SDS011;8916;47.086;15.920;2024-03-17T14:18:03;4.13;;;2.20;;
17595;SDS011;8916;47.086;15.920;2024-03-17T14:20:33;3.45;;;1.80;;
17595;SDS011;8916;47.086;15.920;2024-03-17T14:23:03;5.28;;;2.50;;
17595;SDS011;8916;47.086;15.920;2024-03-17T14:25:32;2.50;;;1.38;;
17595;SDS011;8916;47.086;15.920;2024-03-17T14:27:59;4.65;;;1.77;;
17595;SDS011;8916;47.086;15.920;2024-03-17T14:30:29;4.07;;;1.90;;
17595;SDS011;8916;47.086;15.920;2024-03-17T14:33:03;4.20;;;2.05;;
17595;SDS011;8916;47.086;15.920;2024-03-17T14:35:34;4.57;;;1.90;;
17595;SDS011;8916;47.086;15.920;2024-03-17T14:38:03;2.85;;;1.63;;
17595;SDS011;8916;47.086;15.920;2024-03-17T14:40:31;2.42;;;1.85;;
17595;SDS011;8916;47.086;15.920;2024-03-17T14:43:00;4.65;;;1.60;;
17595;SDS011;8916;47.086;15.920;2024-03-17T14:45:31;3.53;;;2.22;;
17595;SDS011;8916;47.086;15.920;2024-03-17T14:48:01;3.58;;;2.00;;
17595;SDS011;8916;47.086;15.920;2024-03-17T14:50:29;3.35;;;1.85;;
17595;SDS011;8916;47.086;15.920;2024-03-17T14:52:58;3.15;;;2.00;;
17595;SDS011;8916;47.086;15.920;2024-03-17T14:55:26;3.30;;;1.80;;
17595;SDS011;8916;47.086;15.920;2024-03-17T14:57:54;2.40;;;1.42;;
17595;SDS011;8916;47.086;15.920;2024-03-17T15:00:23;5.35;;;1.88;;
17595;SDS011;8916;47.086;15.920;2024-03-17T15:02:53;3.28;;;1.92;;
17595;SDS011;8916;47.086;15.920;2024-03-17T15:05:22;2.38;;;1.67;;
17595;SDS011;8916;47.086;15.920;2024-03-17T15:07:52;4.65;;;1.88;;
17595;SDS011;8916;47.086;15.920;2024-03-17T15:10:20;3.10;;;1.70;;